Time;durP1;ratioP1;P1;durP2;ratioP2;P2;SDS_P1;SDS_P2;PMS_P1;PMS_P2;Temp;Humidity;BMP_temperature;BMP_pressure;BME280_temperature;BME280_humidity;BME280_pressure;Samples;Min_cycle;Max_cycle;Signal;HPM_P1;HPM_P2
2022/08/20 00:00:35;;;;;;;5.47;4.97;;;;;;;24.00;42.21;93479.13;4936065;28;20128;-80
2022/08/20 00:03:14;;;;;;;6.70;4.90;;;;;;;24.41;42.59;93517.09;4934954;28;20042;-80
2022/08/20 00:05:45;;;;;;;6.97;4.60;;;;;;;24.37;42.31;93496.56;4932849;28;20035;-81
2022/08/20 00:08:11;;;;;;;9.13;5.07;;;;;;;24.48;41.99;93499.16;4936465;28;20472;-81
2022/08/20 00:10:41;;;;;;;7.50;4.75;;;;;;;24.51;42.42;93517.34;4935964;28;20045;-80
2022/08/20 00:13:09;;;;;;;5.60;5.10;;;;;;;24.33;41.60;93521.06;4938126;28;20031;-81
2022/08/20 00:15:36;;;;;;;5.00;4.50;;;;;;;24.36;42.01;93528.41;4937530;28;20035;-80
2022/08/20 00:18:04;;;;;;;8.18;5.15;;;;;;;24.30;42.44;93513.72;4934366;28;20403;-79
2022/08/20 00:20:35;;;;;;;4.57;3.95;;;;;;;24.09;42.62;93478.66;4940445;28;20046;-80
2022/08/20 00:23:00;;;;;;;4.95;4.40;;;;;;;24.28;42.68;93515.31;4938725;28;20071;-80
2022/08/20 00:25:27;;;;;;;5.65;4.68;;;;;;;23.81;41.64;93498.72;4952164;28;20180;-80
2022/08/20 00:27:53;;;;;;;6.18;4.68;;;;;;;23.76;42.47;93504.59;4940671;28;20451;-80
2022/08/20 00:30:19;;;;;;;5.38;4.53;;;;;;;23.78;42.90;93472.41;4934579;28;20039;-80
2022/08/20 00:32:49;;;;;;;5.43;4.78;;;;;;;24.15;42.95;93511.59;4921664;28;20027;-80
2022/08/20 00:35:16;;;;;;;8.48;5.22;;;;;;;24.10;43.59;93509.31;4937794;28;20027;-80
2022/08/20 00:37:42;;;;;;;6.43;5.45;;;;;;;23.75;42.94;93505.81;4951409;28;20039;-80
2022/08/20 00:40:12;;;;;;;6.95;5.25;;;;;;;24.06;42.84;93533.00;4938989;28;20073;-79
2022/08/20 00:42:41;;;;;;;7.07;5.10;;;;;;;24.01;42.46;93512.47;4935532;28;20507;-80
2022/08/20 00:45:08;;;;;;;6.38;5.28;;;;;;;23.97;43.39;93523.41;4918413;28;20667;-79
2022/08/20 00:47:33;;;;;;;6.30;4.90;;;;;;;24.14;43.22;93526.34;4936017;28;20024;-80
2022/08/20 00:49:59;;;;;;;4.43;4.03;;;;;;;23.83;42.15;93473.91;4923380;28;20066;-81
2022/08/20 00:52:24;;;;;;;6.15;4.93;;;;;;;24.13;42.59;93509.28;4936091;28;20044;-80
2022/08/20 00:54:57;;;;;;;4.78;4.15;;;;;;;24.08;42.91;93495.34;4935618;28;20601;-80
2022/08/20 00:57:38;;;;;;;6.20;4.70;;;;;;;24.17;42.95;93514.66;4922437;28;20039;-80
2022/08/20 01:00:13;;;;;;;5.20;4.35;;;;;;;24.16;42.89;93510.41;4936539;28;20043;-81
2022/08/20 01:02:40;;;;;;;5.18;4.53;;;;;;;24.10;43.10;93503.88;4936480;28;20058;-82
2022/08/20 01:05:08;;;;;;;5.85;4.88;;;;;;;23.88;42.55;93473.47;4942029;28;20070;-80
2022/08/20 01:07:35;;;;;;;5.43;4.65;;;;;;;24.06;42.71;93486.81;4927147;28;20035;-80
2022/08/20 01:10:08;;;;;;;5.90;4.53;;;;;;;24.15;42.48;93490.63;4939082;28;20035;-81
2022/08/20 01:12:36;;;;;;;6.75;4.97;;;;;;;24.06;42.67;93470.53;4957573;28;20035;-80
2022/08/20 01:15:04;;;;;;;5.30;4.80;;;;;;;24.11;42.90;93479.03;4941611;28;20027;-80
2022/08/20 01:17:35;;;;;;;7.07;4.40;;;;;;;24.10;42.74;93477.44;4956660;28;20042;-80
2022/08/20 01:20:05;;;;;;;5.45;4.30;;;;;;;23.89;43.20;93456.75;4956763;28;20046;-81
2022/08/20 01:25:42;;;;;;;6.22;4.63;;;;;;;24.03;43.06;93482.97;4939935;28;20046;-81
2022/08/20 01:28:09;;;;;;;5.43;4.00;;;;;;;23.93;43.27;93465.63;4925519;28;20042;-81
2022/08/20 01:30:36;;;;;;;6.18;4.22;;;;;;;23.93;42.85;93468.34;4940207;28;20050;-80
2022/08/20 01:33:01;;;;;;;6.82;5.43;;;;;;;23.90;42.86;93469.19;4954293;28;20867;-79
2022/08/20 01:35:27;;;;;;;7.00;4.57;;;;;;;23.63;42.61;93441.16;4941609;28;20023;-80
2022/08/20 01:37:53;;;;;;;6.25;4.93;;;;;;;23.61;43.42;93450.88;4940029;28;20098;-79
2022/08/20 01:40:28;;;;;;;5.50;4.90;;;;;;;23.62;43.46;93453.19;4928543;28;20043;-80
2022/08/20 01:42:53;;;;;;;7.13;4.78;;;;;;;23.54;43.55;93438.16;4922757;28;20431;-80
2022/08/20 01:45:20;;;;;;;6.07;4.47;;;;;;;23.38;44.02;93448.75;4939746;28;20705;-80
2022/08/20 01:47:45;;;;;;;5.53;4.38;;;;;;;23.37;44.10;93452.63;4939471;28;20015;-80
2022/08/20 01:50:20;;;;;;;5.88;4.57;;;;;;;23.52;43.62;93465.69;4941028;28;20031;-80
2022/08/20 01:53:04;;;;;;;9.10;5.20;;;;;;;23.41;43.28;93445.25;4940349;28;20085;-79
2022/08/20 01:55:31;;;;;;;4.95;3.97;;;;;;;23.64;43.51;93460.94;4938851;28;20046;-79
2022/08/20 01:57:58;;;;;;;6.22;4.88;;;;;;;23.51;43.90;93453.28;4939011;28;20361;-80
2022/08/20 02:00:24;;;;;;;6.95;5.05;;;;;;;23.53;44.41;93459.09;4924875;28;20488;-80
2022/08/20 02:02:50;;;;;;;6.90;4.80;;;;;;;23.45;43.70;93448.69;4940735;28;20677;-80
2022/08/20 02:05:16;;;;;;;7.65;4.68;;;;;;;23.50;43.86;93451.00;4938976;28;20054;-79
2022/08/20 02:07:42;;;;;;;5.68;4.85;;;;;;;23.64;44.18;93471.78;4939024;28;20479;-80
2022/08/20 02:10:10;;;;;;;6.10;4.47;;;;;;;23.56;44.17;93466.41;4940630;28;20043;-79
2022/08/20 02:12:38;;;;;;;5.43;4.57;;;;;;;23.49;44.05;93452.16;4942763;28;20369;-79
2022/08/20 02:15:07;;;;;;;5.32;4.72;;;;;;;23.46;43.80;93433.94;4939039;28;20378;-80
2022/08/20 02:17:33;;;;;;;7.53;5.22;;;;;;;23.67;44.12;93471.75;4941983;28;20147;-80
2022/08/20 02:20:07;;;;;;;8.18;5.10;;;;;;;23.03;44.23;93437.03;4938999;28;20035;-80
2022/08/20 02:22:43;;;;;;;;;;;;;;;23.39;44.43;93459.19;4941378;28;20043;-80
2022/08/20 02:25:09;;;;;;;;;;;;;;;23.38;44.98;93465.03;4955780;28;19922;-80
2022/08/20 02:27:36;;;;;;;6.10;5.13;;;;;;;23.39;44.72;93466.56;4939061;28;19974;-79
2022/08/20 02:30:09;;;;;;;6.22;4.65;;;;;;;23.20;44.39;93432.66;4938700;28;20040;-80
2022/08/20 02:32:34;;;;;;;6.28;5.13;;;;;;;23.17;44.64;93443.53;4922068;28;20048;-80
2022/08/20 02:35:02;;;;;;;7.40;5.60;;;;;;;23.01;44.41;93428.56;4939068;28;20023;-81
2022/08/20 02:37:28;;;;;;;8.13;5.70;;;;;;;23.22;44.45;93451.25;4939218;28;20054;-80
2022/08/20 02:39:54;;;;;;;6.18;5.57;;;;;;;23.15;44.86;93466.41;4934083;28;20030;-81
2022/08/20 02:42:19;;;;;;;8.18;5.47;;;;;;;23.12;45.03;93475.31;4939312;28;20538;-80
2022/08/20 02:44:45;;;;;;;6.35;5.30;;;;;;;23.00;44.32;93442.50;4958504;28;20025;-80
2022/08/20 02:47:10;;;;;;;6.40;4.97;;;;;;;23.13;44.21;93444.31;4958717;28;20106;-80
2022/08/20 02:49:36;;;;;;;7.03;5.30;;;;;;;23.26;44.30;93455.47;4958227;28;20158;-79
2022/08/20 02:52:01;;;;;;;7.82;5.95;;;;;;;23.16;44.69;93478.03;4957077;28;20066;-79
2022/08/20 02:54:28;;;;;;;9.50;5.53;;;;;;;22.95;45.61;93470.81;4958342;28;20565;-79
2022/08/20 02:56:53;;;;;;;5.38;4.25;;;;;;;22.75;45.90;93442.69;4957542;28;20027;-78
2022/08/20 02:59:18;;;;;;;7.65;5.45;;;;;;;22.92;45.77;93466.22;4941322;28;20026;-79
2022/08/20 03:01:44;;;;;;;6.00;5.13;;;;;;;23.17;45.49;93483.03;4955386;28;20047;-80
2022/08/20 03:04:10;;;;;;;5.38;4.53;;;;;;;22.81;45.61;93443.78;4956332;28;20330;-79
2022/08/20 03:06:35;;;;;;;7.38;4.85;;;;;;;22.96;45.29;93453.41;4955861;28;20035;-79
2022/08/20 03:09:04;;;;;;;6.18;4.97;;;;;;;22.99;45.32;93446.38;4960307;28;20364;-80
2022/08/20 03:11:30;;;;;;;5.90;5.00;;;;;;;23.13;45.00;93460.59;4958792;28;20114;-79
2022/08/20 03:13:55;;;;;;;7.20;4.60;;;;;;;23.26;45.06;93479.09;4957219;28;20035;-79
2022/08/20 03:16:21;;;;;;;7.45;4.68;;;;;;;22.87;45.22;93422.47;4941603;28;20051;-79
2022/08/20 03:18:47;;;;;;;7.28;5.20;;;;;;;23.18;44.94;93470.25;4937387;28;20042;-80
2022/08/20 03:21:12;;;;;;;6.60;5.22;;;;;;;23.22;45.08;93478.38;4936527;28;20535;-80
2022/08/20 03:23:40;;;;;;;5.20;4.70;;;;;;;22.99;45.34;93455.28;4938738;28;20034;-79
2022/08/20 03:26:07;;;;;;;7.55;5.45;;;;;;;23.06;44.93;93452.53;4939036;28;20149;-79
2022/08/20 03:28:33;;;;;;;6.00;5.03;;;;;;;23.29;45.10;93483.72;4927425;28;20162;-79
2022/08/20 03:30:59;;;;;;;6.57;5.45;;;;;;;23.25;45.11;93489.19;4936729;28;20300;-79
2022/08/20 03:33:26;;;;;;;7.60;5.15;;;;;;;23.25;45.06;93493.84;4936469;28;20939;-79
2022/08/20 03:35:52;;;;;;;7.95;5.30;;;;;;;23.21;45.31;93491.16;4939368;28;20090;-80
2022/08/20 03:38:20;;;;;;;7.22;4.95;;;;;;;23.17;45.07;93493.13;4939339;28;20198;-80
2022/08/20 03:40:47;;;;;;;6.72;5.07;;;;;;;22.87;45.47;93453.09;4923789;28;20043;-80
2022/08/20 03:43:12;;;;;;;5.53;4.25;;;;;;;23.17;45.16;93485.00;4937580;28;20472;-80
2022/08/20 03:45:41;;;;;;;5.95;5.15;;;;;;;23.22;45.11;93486.50;4937740;28;20041;-80
2022/08/20 03:48:07;;;;;;;6.07;4.68;;;;;;;23.20;45.17;93491.56;4951650;28;20035;-79
2022/08/20 03:50:34;;;;;;;5.65;5.00;;;;;;;22.90;45.22;93440.66;4958283;28;20491;-79
2022/08/20 03:52:59;;;;;;;7.70;5.13;;;;;;;23.13;45.27;93482.28;4957374;28;20569;-79
2022/08/20 03:55:28;;;;;;;7.43;5.18;;;;;;;23.14;45.00;93494.69;4942261;28;20038;-79
2022/08/20 03:57:57;;;;;;;6.95;5.28;;;;;;;23.13;45.04;93493.16;4929972;28;20035;-79
2022/08/20 04:00:36;;;;;;;7.93;4.85;;;;;;;23.15;45.56;93511.75;4946332;28;20702;-79
2022/08/20 04:03:01;;;;;;;6.22;5.00;;;;;;;22.94;45.54;93471.22;4936805;28;20122;-79
2022/08/20 04:05:29;;;;;;;5.88;4.70;;;;;;;23.06;45.57;93487.78;4941337;28;20126;-80
2022/08/20 04:07:59;;;;;;;5.20;4.55;;;;;;;23.07;45.68;93492.03;4941256;28;20035;-80
2022/08/20 04:10:25;;;;;;;7.18;5.10;;;;;;;23.15;45.69;93506.31;4931801;28;20035;-80
2022/08/20 04:12:51;;;;;;;8.85;4.55;;;;;;;22.98;45.74;93474.66;4938197;28;20043;-80
2022/08/20 04:15:17;;;;;;;12.75;6.07;;;;;;;23.13;45.93;93497.78;4937704;28;20054;-80
2022/08/20 04:17:46;;;;;;;6.53;4.82;;;;;;;23.04;45.92;93481.22;4927012;28;20121;-79
2022/08/20 04:20:17;;;;;;;8.75;5.18;;;;;;;23.21;45.89;93509.38;4937492;28;20493;-80
2022/08/20 04:22:45;;;;;;;6.93;5.45;;;;;;;22.97;46.46;93479.34;4928044;28;20070;-80
2022/08/20 04:25:10;;;;;;;5.90;4.85;;;;;;;22.97;46.30;93468.50;4938083;28;20038;-79
2022/08/20 04:27:37;;;;;;;9.05;5.35;;;;;;;23.04;46.51;93471.13;4939523;28;20035;-80
2022/08/20 04:30:09;;;;;;;8.40;5.15;;;;;;;23.09;46.74;93481.56;4938828;28;20042;-80
2022/08/20 04:32:40;;;;;;;7.95;5.57;;;;;;;23.35;47.23;93517.41;4943891;28;20051;-79
2022/08/20 04:35:08;;;;;;;9.50;4.90;;;;;;;23.38;46.75;93513.88;4940392;28;20037;-79
2022/08/20 04:37:33;;;;;;;9.07;5.30;;;;;;;23.29;46.74;93521.69;4972862;28;20036;-79
2022/08/20 04:42:57;;;;;;;7.82;5.40;;;;;;;23.24;45.30;93478.72;4960589;28;20045;-79
2022/08/20 04:45:23;;;;;;;7.25;6.15;;;;;;;23.44;44.71;93512.28;4949278;28;20121;-79
2022/08/20 04:47:50;;;;;;;6.78;5.70;;;;;;;23.33;44.93;93498.78;4949904;28;20018;-79
2022/08/20 04:50:16;;;;;;;8.35;6.25;;;;;;;23.05;44.83;93451.00;4942857;28;20027;-80
2022/08/20 04:52:41;;;;;;;6.60;5.90;;;;;;;23.60;45.48;93509.84;4974066;28;20035;-79
2022/08/20 04:55:08;;;;;;;6.88;5.90;;;;;;;23.17;44.50;93432.69;4961161;28;20856;-79
2022/08/20 04:57:37;;;;;;;7.80;5.90;;;;;;;23.75;44.62;93505.81;4963100;28;20578;-80
2022/08/20 05:00:10;;;;;;;6.60;5.15;;;;;;;23.84;44.27;93508.03;4961659;28;20066;-80
2022/08/20 05:02:36;;;;;;;7.88;5.90;;;;;;;23.62;43.90;93463.25;4961304;28;20027;-80
2022/08/20 05:05:07;;;;;;;9.95;5.68;;;;;;;23.90;44.53;93509.91;4962930;28;20031;-80
2022/08/20 05:07:41;;;;;;;6.10;5.50;;;;;;;23.66;43.98;93453.91;4961421;28;20031;-80
2022/08/20 05:10:09;;;;;;;7.53;5.63;;;;;;;23.93;43.74;93486.59;4974741;28;20031;-79
2022/08/20 05:12:34;;;;;;;7.13;5.57;;;;;;;23.95;43.76;93486.97;4960407;28;20899;-80
2022/08/20 05:15:00;;;;;;;8.27;5.45;;;;;;;24.07;44.31;93510.09;4957589;28;20027;-81
2022/08/20 05:17:26;;;;;;;9.90;5.95;;;;;;;24.09;44.33;93494.19;4961777;28;20087;-79
2022/08/20 05:19:51;;;;;;;7.97;5.25;;;;;;;24.32;44.08;93514.09;4961177;28;20730;-80
2022/08/20 05:22:17;;;;;;;6.22;5.63;;;;;;;24.39;43.23;93513.25;4959553;28;20083;-79
2022/08/20 05:24:43;;;;;;;7.78;6.35;;;;;;;24.35;42.90;93520.66;4960477;28;20431;-79
2022/08/20 05:27:09;;;;;;;8.48;5.88;;;;;;;24.42;42.51;93501.53;4960742;28;20098;-80
2022/08/20 05:29:34;;;;;;;10.00;6.05;;;;;;;24.26;42.65;93507.56;4959984;28;20086;-81
2022/08/20 05:32:01;;;;;;;8.40;6.53;;;;;;;24.37;42.51;93491.13;4948389;28;20110;-80
2022/08/20 05:34:26;;;;;;;7.00;5.85;;;;;;;24.51;43.28;93490.94;4940439;28;20098;-80
2022/08/20 05:36:52;;;;;;;12.40;6.68;;;;;;;24.28;42.69;93488.91;4942920;28;20338;-80
2022/08/20 05:39:19;;;;;;;8.38;6.65;;;;;;;24.42;44.04;93488.72;4939359;28;20058;-80
2022/08/20 05:41:45;;;;;;;11.45;6.25;;;;;;;24.55;43.71;93494.38;4940535;28;20031;-79
2022/08/20 05:44:14;;;;;;;7.45;6.03;;;;;;;24.54;43.79;93490.09;4955002;28;20078;-80
2022/08/20 05:46:42;;;;;;;12.00;7.15;;;;;;;24.49;42.64;93504.19;4954243;28;20487;-78
2022/08/20 05:49:09;;;;;;;9.38;6.35;;;;;;;24.16;43.20;93465.00;4939568;28;20070;-79
2022/08/20 05:51:35;;;;;;;6.57;5.50;;;;;;;24.47;43.15;93490.22;4924518;28;20042;-79
2022/08/20 05:54:03;;;;;;;14.50;7.65;;;;;;;24.66;43.25;93489.56;4942066;28;20482;-79
2022/08/20 05:56:29;;;;;;;12.55;6.47;;;;;;;24.55;42.47;93483.50;4930443;28;20055;-79
2022/08/20 05:58:55;;;;;;;10.73;6.72;;;;;;;24.80;43.09;93492.09;4939613;28;20037;-79
2022/08/20 06:01:21;;;;;;;13.85;6.57;;;;;;;24.62;42.73;93480.69;4940492;28;20067;-80
2022/08/20 06:06:33;;;;;;;8.13;6.68;;;;;;;24.66;42.60;93497.72;4941812;28;20055;-80
2022/08/20 06:08:58;;;;;;;9.25;7.53;;;;;;;24.48;42.92;93486.31;4939712;28;20050;-81
2022/08/20 06:11:24;;;;;;;13.15;7.15;;;;;;;24.68;42.70;93500.03;4955107;28;20479;-80
2022/08/20 06:13:49;;;;;;;10.13;6.72;;;;;;;24.60;42.57;93479.53;4942323;28;20072;-80
2022/08/20 06:16:15;;;;;;;10.80;6.72;;;;;;;24.73;43.08;93478.63;4938501;28;20043;-80
2022/08/20 06:18:40;;;;;;;7.32;6.57;;;;;;;24.67;42.73;93496.56;4953514;28;20039;-79
2022/08/20 06:21:06;;;;;;;7.53;6.40;;;;;;;24.74;42.29;93482.09;4939842;28;20493;-80
2022/08/20 06:23:31;;;;;;;10.07;7.20;;;;;;;24.73;41.96;93486.78;4939726;28;20028;-80
2022/08/20 06:25:57;;;;;;;7.70;6.07;;;;;;;24.50;41.92;93489.41;4940511;28;20034;-79
2022/08/20 06:28:23;;;;;;;8.82;6.45;;;;;;;24.83;42.27;93496.72;4939501;28;20034;-80
2022/08/20 06:30:48;;;;;;;11.82;7.07;;;;;;;24.96;42.92;93488.00;4940002;28;20499;-80
2022/08/20 06:33:14;;;;;;;12.02;6.90;;;;;;;25.01;43.54;93485.59;4936697;28;20039;-80
2022/08/20 06:35:40;;;;;;;8.63;6.57;;;;;;;25.03;42.83;93493.34;4940287;28;20038;-80
2022/08/20 06:38:08;;;;;;;11.65;7.43;;;;;;;25.18;43.17;93498.13;4938847;28;20038;-80
2022/08/20 06:40:33;;;;;;;7.50;6.63;;;;;;;25.09;42.56;93497.09;4939806;28;20063;-80
2022/08/20 06:42:59;;;;;;;7.60;6.47;;;;;;;25.09;41.93;93491.66;4939549;28;20050;-80
2022/08/20 06:45:28;;;;;;;7.88;7.07;;;;;;;25.14;42.65;93488.47;4938168;28;20038;-79
2022/08/20 06:47:56;;;;;;;8.27;6.55;;;;;;;25.42;42.55;93498.94;4940503;28;20110;-80
2022/08/20 06:50:27;;;;;;;12.07;7.50;;;;;;;25.40;42.01;93460.47;4936785;28;20040;-79
2022/08/20 06:52:53;;;;;;;6.38;5.78;;;;;;;25.69;42.29;93487.97;4938199;28;20036;-79
2022/08/20 06:55:19;;;;;;;8.82;6.25;;;;;;;25.64;42.53;93488.44;4940962;28;20074;-80
2022/08/20 06:57:47;;;;;;;8.55;6.90;;;;;;;25.34;42.76;93425.97;4938664;28;20051;-79
2022/08/20 07:00:17;;;;;;;9.35;6.28;;;;;;;25.81;42.16;93471.00;4936051;28;20488;-79
2022/08/20 07:02:43;;;;;;;9.75;6.38;;;;;;;25.94;42.63;93465.75;4924941;28;20062;-80
2022/08/20 07:05:09;;;;;;;8.70;6.80;;;;;;;25.90;42.36;93437.81;4911922;28;20027;-79
2022/08/20 07:07:36;;;;;;;7.97;6.25;;;;;;;26.24;42.73;93470.19;4931989;28;20490;-79
2022/08/20 07:10:07;;;;;;;9.15;6.03;;;;;;;26.22;42.47;93446.09;4925949;28;20299;-80
2022/08/20 07:12:35;;;;;;;7.93;6.70;;;;;;;26.37;42.05;93458.22;4924746;28;20642;-80
2022/08/20 07:15:06;;;;;;;9.27;7.05;;;;;;;26.45;42.02;93461.56;4933433;28;20042;-80
2022/08/20 07:17:31;;;;;;;8.35;6.07;;;;;;;26.50;42.90;93470.03;4949610;28;20416;-80
2022/08/20 07:19:59;;;;;;;12.35;6.40;;;;;;;26.43;41.99;93433.97;4929249;28;20048;-80
2022/08/20 07:22:26;;;;;;;10.20;6.65;;;;;;;26.59;42.35;93452.34;4925703;28;20074;-80
2022/08/20 07:24:51;;;;;;;8.05;7.10;;;;;;;26.58;42.58;93437.19;4926263;28;20039;-80
2022/08/20 07:27:21;;;;;;;10.23;6.80;;;;;;;26.65;41.53;93442.44;4942913;28;20074;-80
2022/08/20 07:32:38;;;;;;;8.00;6.20;;;;;;;26.71;42.10;93454.41;4916178;28;20114;-80
2022/08/20 07:35:13;;;;;;;9.73;6.47;;;;;;;26.54;40.75;93429.81;4942207;28;20066;-81
2022/08/20 07:37:42;;;;;;;6.88;6.20;;;;;;;26.62;42.11;93433.19;4947049;28;20774;-80
2022/08/20 07:40:13;;;;;;;9.95;6.45;;;;;;;26.82;41.50;93452.22;4930816;28;20572;-79
2022/08/20 07:42:39;;;;;;;10.50;6.85;;;;;;;26.89;41.71;93454.75;4930965;28;20039;-79
2022/08/20 07:45:09;;;;;;;8.98;6.43;;;;;;;26.82;41.69;93450.25;4931515;28;20709;-80
2022/08/20 07:47:40;;;;;;;8.57;6.45;;;;;;;26.94;41.63;93467.88;4933132;28;20038;-80
2022/08/20 07:50:08;;;;;;;8.63;7.13;;;;;;;26.85;40.79;93433.03;4934273;28;20051;-80
2022/08/20 07:52:34;;;;;;;10.30;7.15;;;;;;;26.55;41.17;93381.50;4948686;28;20043;-81
2022/08/20 07:55:07;;;;;;;7.82;6.88;;;;;;;27.09;41.18;93463.66;4934707;28;20041;-80
2022/08/20 07:57:33;;;;;;;8.98;7.10;;;;;;;26.97;41.56;93447.97;4934665;28;20035;-80
2022/08/20 08:00:00;;;;;;;8.85;6.85;;;;;;;26.95;40.67;93437.47;4955871;28;20054;-80
2022/08/20 08:02:27;;;;;;;11.90;6.90;;;;;;;27.13;41.31;93463.59;4950352;28;20018;-80
2022/08/20 08:04:53;;;;;;;8.43;6.80;;;;;;;27.02;41.30;93447.47;4948902;28;20043;-80
2022/08/20 08:07:19;;;;;;;7.60;6.32;;;;;;;27.17;41.10;93454.13;4947695;28;20590;-79
2022/08/20 08:09:45;;;;;;;7.97;6.55;;;;;;;27.15;40.46;93453.00;4951187;28;20117;-80
2022/08/20 08:12:12;;;;;;;8.95;6.75;;;;;;;27.28;40.29;93460.06;4950313;28;20035;-81
2022/08/20 08:14:40;;;;;;;8.10;6.45;;;;;;;27.29;40.26;93456.16;4960630;28;20023;-81
2022/08/20 08:17:10;;;;;;;6.65;5.97;;;;;;;27.01;40.55;93423.31;4966555;28;20495;-80
2022/08/20 08:19:48;;;;;;;7.43;6.68;;;;;;;26.91;40.18;93408.72;4962733;28;20063;-80
2022/08/20 08:22:17;;;;;;;7.85;6.82;;;;;;;26.86;41.05;93401.06;4963067;28;20052;-79
2022/08/20 08:24:46;;;;;;;7.90;6.40;;;;;;;27.21;40.45;93443.88;4963230;28;20055;-80
2022/08/20 08:27:12;;;;;;;6.95;6.25;;;;;;;27.10;40.08;93415.31;4970125;28;20620;-80
2022/08/20 08:29:38;;;;;;;8.50;7.05;;;;;;;27.05;40.51;93408.41;4947862;28;20522;-80
2022/08/20 08:32:05;;;;;;;8.60;6.85;;;;;;;27.25;40.42;93444.56;4963223;28;20066;-81
2022/08/20 08:34:34;;;;;;;7.47;6.43;;;;;;;26.98;40.47;93422.22;4981284;28;20524;-79
2022/08/20 08:37:01;;;;;;;7.47;6.68;;;;;;;27.29;40.50;93441.72;4967822;28;20603;-81
2022/08/20 08:39:27;;;;;;;8.50;6.40;;;;;;;27.36;40.57;93439.59;4962706;28;20046;-80
2022/08/20 08:41:56;;;;;;;8.15;7.28;;;;;;;27.15;40.65;93399.19;4952905;28;20581;-80
2022/08/20 08:44:28;;;;;;;9.98;6.57;;;;;;;27.33;39.87;93417.84;4953284;28;20114;-80
2022/08/20 08:46:59;;;;;;;10.05;6.95;;;;;;;27.51;39.45;93436.50;4953774;28;20043;-80
2022/08/20 08:49:29;;;;;;;8.75;6.72;;;;;;;27.34;39.92;93398.31;4953410;28;20035;-81
2022/08/20 08:52:00;;;;;;;12.77;6.22;;;;;;;27.60;39.39;93420.28;4950878;28;20102;-81
2022/08/20 08:54:28;;;;;;;7.88;6.70;;;;;;;27.47;39.14;93398.38;4954622;28;20118;-80
2022/08/20 08:56:54;;;;;;;7.60;6.68;;;;;;;27.44;40.05;93423.78;4968220;28;20050;-80
2022/08/20 08:59:21;;;;;;;8.82;6.68;;;;;;;27.44;39.56;93407.41;4954893;28;20027;-82
2022/08/20 09:01:54;;;;;;;8.23;7.43;;;;;;;27.38;39.49;93379.09;4968479;28;20376;-81
2022/08/20 09:04:21;;;;;;;17.10;6.35;;;;;;;27.66;39.28;93415.84;4950468;28;20514;-81
2022/08/20 09:06:47;;;;;;;8.43;6.60;;;;;;;27.29;39.86;93348.91;4962614;28;20058;-79
2022/08/20 09:09:26;;;;;;;9.98;6.80;;;;;;;27.47;39.21;93370.28;4972344;28;20043;-81
2022/08/20 09:11:55;;;;;;;6.95;6.15;;;;;;;27.76;39.10;93404.63;4957298;28;20023;-79
2022/08/20 09:14:23;;;;;;;7.28;6.57;;;;;;;27.54;38.88;93378.28;4961787;28;20034;-81
2022/08/20 09:16:50;;;;;;;9.27;7.72;;;;;;;27.88;39.29;93413.28;4955270;28;20047;-80
2022/08/20 09:19:15;;;;;;;7.43;6.43;;;;;;;27.48;38.81;93358.91;4959444;28;20039;-80
2022/08/20 09:21:41;;;;;;;8.77;7.00;;;;;;;27.78;38.59;93393.25;4958431;28;20042;-81
2022/08/20 09:24:09;;;;;;;11.15;7.28;;;;;;;27.65;38.51;93403.38;4959385;28;20066;-83
2022/08/20 09:26:35;;;;;;;8.90;6.18;;;;;;;27.46;38.75;93402.28;4970957;28;20269;-83
2022/08/20 09:29:00;;;;;;;9.38;7.70;;;;;;;27.49;39.45;93381.53;4959899;28;20046;-82
2022/08/20 09:31:26;;;;;;;7.10;6.15;;;;;;;27.59;38.76;93375.81;4951998;28;20054;-81
2022/08/20 09:33:52;;;;;;;8.80;6.85;;;;;;;27.59;38.70;93361.41;4952141;28;20043;-81
2022/08/20 09:36:18;;;;;;;8.23;6.47;;;;;;;27.93;38.85;93390.88;4956064;28;20043;-81
2022/08/20 09:38:43;;;;;;;7.65;6.85;;;;;;;28.02;38.25;93388.28;4953228;28;20395;-81
2022/08/20 09:41:09;;;;;;;7.15;6.43;;;;;;;28.17;37.93;93403.88;4955223;28;20027;-80
2022/08/20 09:43:35;;;;;;;9.35;6.80;;;;;;;28.01;37.81;93389.50;4951344;28;20205;-80
2022/08/20 09:46:00;;;;;;;8.40;7.57;;;;;;;27.53;38.44;93360.34;4950494;28;20035;-80
2022/08/20 09:48:26;;;;;;;7.05;6.35;;;;;;;27.83;38.18;93379.06;4955250;28;20042;-80
2022/08/20 09:50:54;;;;;;;7.60;6.25;;;;;;;28.01;37.47;93382.03;4956976;28;20022;-83
2022/08/20 09:53:20;;;;;;;12.60;7.25;;;;;;;28.23;38.31;93396.66;4968593;28;20475;-80
2022/08/20 09:55:50;;;;;;;10.98;6.50;;;;;;;28.24;37.55;93375.56;4959395;28;20034;-82
2022/08/20 09:58:37;;;;;;;7.55;6.28;;;;;;;28.46;37.60;93386.59;4950008;28;20050;-81
2022/08/20 10:01:13;;;;;;;7.38;6.50;;;;;;;28.51;36.66;93388.78;4955922;28;20063;-81
2022/08/20 10:03:43;;;;;;;8.98;6.50;;;;;;;27.96;37.49;93351.78;4953541;28;20051;-81
2022/08/20 10:06:10;;;;;;;8.02;6.28;;;;;;;27.72;37.03;93378.59;4948530;28;20039;-81
2022/08/20 10:08:36;;;;;;;9.18;6.47;;;;;;;27.49;37.38;93389.72;4951861;28;20106;-81
2022/08/20 10:11:06;;;;;;;9.30;7.03;;;;;;;27.35;38.68;93399.06;4950534;28;20042;-80
2022/08/20 10:13:31;;;;;;;7.00;6.35;;;;;;;27.09;37.71;93349.03;4950256;28;20524;-81
2022/08/20 10:15:57;;;;;;;8.30;7.50;;;;;;;27.04;38.15;93333.19;4951500;28;20070;-81
2022/08/20 10:18:22;;;;;;;7.65;6.50;;;;;;;27.18;38.40;93335.53;4951314;28;20041;-81
2022/08/20 10:20:47;;;;;;;8.07;6.55;;;;;;;27.54;38.27;93340.03;4952246;28;20480;-81
2022/08/20 10:23:13;;;;;;;7.45;5.95;;;;;;;27.88;37.08;93378.53;4951493;28;20022;-82
2022/08/20 10:25:40;;;;;;;8.73;6.05;;;;;;;27.80;36.86;93358.06;4952525;28;20395;-81
2022/08/20 10:28:05;;;;;;;6.80;5.57;;;;;;;28.24;35.91;93375.56;4951190;28;20041;-79
2022/08/20 10:30:31;;;;;;;5.97;5.38;;;;;;;28.24;35.42;93349.00;4951981;28;20035;-80
2022/08/20 10:32:57;;;;;;;6.82;5.55;;;;;;;28.58;37.83;93372.94;4952495;28;20456;-79
2022/08/20 10:35:22;;;;;;;8.23;6.53;;;;;;;28.45;35.25;93330.41;4949650;28;20234;-79
2022/08/20 10:37:48;;;;;;;9.82;6.30;;;;;;;28.79;36.15;93365.31;4952598;28;20037;-80
2022/08/20 10:40:14;;;;;;;7.57;5.60;;;;;;;28.62;34.65;93340.00;4951442;28;20421;-79
2022/08/20 10:42:42;;;;;;;7.10;6.40;;;;;;;28.76;38.13;93364.19;4950675;28;20495;-81
2022/08/20 10:45:08;;;;;;;9.02;6.15;;;;;;;28.64;36.59;93321.22;4932425;28;20039;-80
2022/08/20 10:47:34;;;;;;;9.80;6.05;;;;;;;28.79;35.52;93354.34;4951009;28;20014;-79
2022/08/20 10:50:06;;;;;;;7.10;5.95;;;;;;;28.87;35.80;93356.41;4952624;28;20159;-82
2022/08/20 10:52:31;;;;;;;7.55;5.95;;;;;;;28.77;35.24;93318.44;4951694;28;20067;-82
2022/08/20 10:54:56;;;;;;;7.32;6.22;;;;;;;28.95;34.85;93346.75;4949138;28;20118;-83
2022/08/20 10:57:28;;;;;;;8.35;6.50;;;;;;;29.08;35.03;93354.97;4936703;28;20357;-83
2022/08/20 10:59:59;;;;;;;8.25;6.00;;;;;;;28.45;35.38;93314.72;4950849;28;20182;-83
2022/08/20 11:02:29;;;;;;;8.07;5.82;;;;;;;28.61;35.09;93349.41;4933456;28;20033;-83
2022/08/20 11:04:55;;;;;;;7.97;6.20;;;;;;;27.06;35.73;93128.09;4935964;28;20062;-82
2022/08/20 11:07:24;;;;;;;8.13;6.13;;;;;;;28.77;34.88;93354.78;4949213;28;20476;-83
2022/08/20 11:09:50;;;;;;;7.47;6.30;;;;;;;28.00;34.75;93227.47;4936045;28;20634;-82
2022/08/20 11:12:17;;;;;;;9.68;7.18;;;;;;;28.37;34.18;93255.25;4937781;28;20158;-83
2022/08/20 11:14:43;;;;;;;6.78;6.05;;;;;;;28.74;34.39;93327.56;4949881;28;20054;-83
2022/08/20 11:17:09;;;;;;;9.88;6.60;;;;;;;28.03;34.99;93240.25;4950724;28;20031;-84
2022/08/20 11:19:43;;;;;;;11.52;7.50;;;;;;;28.94;39.98;93339.75;4949783;28;20508;-82
2022/08/20 11:22:10;;;;;;;7.65;6.55;;;;;;;28.83;36.93;93333.88;4950210;28;20046;-82
2022/08/20 11:24:36;;;;;;;7.15;6.45;;;;;;;29.02;35.24;93334.81;4950483;28;20031;-81
2022/08/20 11:27:07;;;;;;;8.00;6.63;;;;;;;29.19;34.54;93335.44;4950688;28;20035;-82
2022/08/20 11:29:35;;;;;;;8.80;7.00;;;;;;;29.22;35.09;93326.34;4940233;28;20081;-81
2022/08/20 11:32:00;;;;;;;7.32;6.28;;;;;;;29.33;34.62;93321.28;4943491;28;20478;-84
2022/08/20 11:34:26;;;;;;;8.68;7.10;;;;;;;27.84;34.89;93112.84;4948680;28;20039;-83
2022/08/20 11:36:52;;;;;;;10.00;6.35;;;;;;;27.79;35.38;93105.19;4950936;28;20043;-84
2022/08/20 11:39:18;;;;;;;8.40;6.40;;;;;;;29.25;35.03;93287.13;4951965;28;20132;-83
2022/08/20 11:41:43;;;;;;;7.57;6.45;;;;;;;29.42;34.38;93302.16;4950644;28;20648;-83
2022/08/20 11:44:09;;;;;;;10.32;6.63;;;;;;;28.12;34.61;93092.78;4943499;28;20015;-86
2022/08/20 11:46:34;;;;;;;8.00;6.50;;;;;;;28.80;34.93;93186.22;4948365;28;20070;-83